Time;durP1;ratioP1;P1;durP2;ratioP2;P2;SDS_P1;SDS_P2;PMS_P1;PMS_P2;Temp;Humidity;BMP_temperature;BMP_pressure;BME280_temperature;BME280_humidity;BME280_pressure;Samples;Min_cycle;Max_cycle;Signal;HPM_P1;HPM_P2
2022/05/11 00:00:43;;;;;;;8.30;5.75;;;12.90;99.90;;;;;;5053352;28;20041;-70
2022/05/11 00:03:11;;;;;;;8.85;6.05;;;12.90;99.90;;;;;;5061356;28;20052;-70
2022/05/11 00:05:38;;;;;;;7.55;5.60;;;12.90;99.90;;;;;;5071926;28;20041;-70
2022/05/11 00:08:05;;;;;;;9.05;5.97;;;12.80;99.90;;;;;;5059664;28;20037;-70
2022/05/11 00:10:32;;;;;;;7.35;5.15;;;12.80;99.90;;;;;;5061032;28;20294;-70
2022/05/11 00:13:00;;;;;;;7.47;5.38;;;12.80;99.90;;;;;;5062305;28;20074;-70
2022/05/11 00:15:26;;;;;;;;;;;12.80;99.90;;;;;;5067931;28;20049;-70
2022/05/11 00:17:53;;;;;;;6.53;5.25;;;12.80;99.90;;;;;;5061936;28;19936;-70
2022/05/11 00:20:20;;;;;;;8.48;5.80;;;12.70;99.90;;;;;;5053582;28;20044;-70
2022/05/11 00:22:47;;;;;;;11.38;6.22;;;12.60;99.90;;;;;;5063707;28;20558;-70
2022/05/11 00:25:15;;;;;;;9.35;5.65;;;12.40;99.90;;;;;;5073227;28;20040;-70
2022/05/11 00:27:42;;;;;;;11.30;5.90;;;12.30;99.90;;;;;;5073390;28;20408;-70
2022/05/11 00:30:11;;;;;;;9.82;5.70;;;12.20;99.90;;;;;;5065340;28;20396;-70
2022/05/11 00:32:38;;;;;;;10.85;5.57;;;12.20;99.90;;;;;;5064941;28;20040;-70
2022/05/11 00:35:05;;;;;;;12.18;5.68;;;12.20;99.90;;;;;;5073073;28;20040;-70
2022/05/11 00:37:33;;;;;;;7.32;5.40;;;12.30;99.90;;;;;;5073200;28;20044;-70
2022/05/11 00:39:59;;;;;;;7.53;5.57;;;12.30;99.90;;;;;;5064807;28;20060;-70
2022/05/11 00:42:26;;;;;;;9.88;6.03;;;12.30;99.90;;;;;;5069103;28;20052;-70
2022/05/11 00:44:54;;;;;;;10.45;6.50;;;12.30;99.90;;;;;;5072974;28;20119;-70
2022/05/11 00:47:25;;;;;;;11.55;6.18;;;12.30;99.90;;;;;;5069331;28;20044;-69
2022/05/11 00:49:58;;;;;;;7.95;6.07;;;12.30;99.90;;;;;;5064140;28;20065;-70
2022/05/11 00:52:42;;;;;;;8.20;5.60;;;12.20;99.90;;;;;;5073078;28;20400;-70
2022/05/11 00:55:26;;;;;;;11.00;5.93;;;12.00;99.90;;;;;;5069604;28;20124;-70
2022/05/11 00:57:56;;;;;;;10.35;5.70;;;11.90;99.90;;;;;;5063818;28;20511;-70
2022/05/11 01:00:25;;;;;;;8.23;6.53;;;11.90;99.90;;;;;;5072715;28;20514;-70
2022/05/11 01:02:55;;;;;;;8.50;6.30;;;12.00;99.90;;;;;;5072562;28;20040;-70
2022/05/11 01:05:22;;;;;;;10.98;6.15;;;12.00;99.90;;;;;;5061300;28;20120;-70
2022/05/11 01:07:53;;;;;;;16.10;6.90;;;11.90;99.90;;;;;;5071484;28;20091;-70
2022/05/11 01:10:21;;;;;;;12.15;6.85;;;11.60;99.90;;;;;;5072206;28;20516;-70
2022/05/11 01:12:53;;;;;;;9.00;6.53;;;11.50;99.90;;;;;;5064410;28;20052;-70
2022/05/11 01:15:20;;;;;;;11.98;7.78;;;11.30;99.90;;;;;;5063733;28;20033;-70
2022/05/11 01:17:47;;;;;;;13.00;7.53;;;11.30;99.90;;;;;;5072455;28;20491;-70
2022/05/11 01:20:17;;;;;;;12.73;7.60;;;11.30;99.90;;;;;;5071969;28;20118;-69
2022/05/11 01:23:20;;;;;;;11.95;7.28;;;11.30;99.90;;;;;;5062049;28;20052;-70
2022/05/11 01:25:47;;;;;;;12.25;7.28;;;11.20;99.90;;;;;;4989432;28;20097;-70
2022/05/11 01:28:40;;;;;;;12.40;7.13;;;11.20;99.90;;;;;;5056619;28;20057;-70
2022/05/11 01:31:09;;;;;;;10.80;6.30;;;11.20;99.90;;;;;;5045618;28;20041;-70
2022/05/11 01:33:40;;;;;;;8.00;5.70;;;11.10;99.90;;;;;;5071930;28;20102;-70
2022/05/11 01:36:26;;;;;;;9.98;5.80;;;11.20;99.90;;;;;;5072567;28;20059;-70
2022/05/11 01:38:56;;;;;;;12.55;5.75;;;11.30;99.90;;;;;;5065691;28;20064;-70
2022/05/11 01:41:33;;;;;;;10.02;5.63;;;11.40;99.90;;;;;;5067137;28;20044;-70
2022/05/11 01:44:03;;;;;;;8.13;6.07;;;11.40;99.90;;;;;;5072231;28;20496;-70
2022/05/11 01:46:30;;;;;;;11.25;6.30;;;11.40;99.90;;;;;;5063832;28;20056;-70
2022/05/11 01:48:57;;;;;;;11.15;6.55;;;11.40;99.90;;;;;;5063912;28;20496;-70
2022/05/11 01:51:24;;;;;;;12.00;6.65;;;11.30;99.90;;;;;;5071509;28;20036;-70
2022/05/11 01:53:51;;;;;;;9.30;6.22;;;11.20;99.90;;;;;;5071220;28;20060;-69
2022/05/11 01:56:21;;;;;;;9.30;6.00;;;11.10;99.90;;;;;;5063660;28;20052;-70
2022/05/11 01:58:49;;;;;;;11.38;6.53;;;11.00;99.90;;;;;;5071879;28;20106;-69
2022/05/11 02:01:19;;;;;;;7.82;6.18;;;10.90;99.90;;;;;;5071414;28;20040;-70
2022/05/11 02:03:47;;;;;;;11.38;6.00;;;10.90;99.90;;;;;;5046719;28;20435;-70
2022/05/11 02:09:01;;;;;;;9.13;6.15;;;10.80;99.90;;;;;;5071523;28;20368;-69
2022/05/11 02:11:28;;;;;;;8.18;5.90;;;10.90;99.90;;;;;;5071376;28;20094;-70
2022/05/11 02:13:57;;;;;;;14.85;6.32;;;10.80;99.90;;;;;;5063780;28;20037;-70
2022/05/11 02:16:25;;;;;;;10.23;6.72;;;10.80;99.90;;;;;;5064543;28;20041;-70
2022/05/11 02:18:53;;;;;;;10.00;6.50;;;10.80;99.90;;;;;;5051437;28;20133;-70
2022/05/11 02:21:20;;;;;;;12.23;7.35;;;10.80;99.90;;;;;;5051241;28;20087;-70
2022/05/11 02:23:50;;;;;;;11.98;7.13;;;11.00;99.90;;;;;;5059496;28;20725;-69
2022/05/11 02:26:19;;;;;;;11.15;7.15;;;11.10;99.90;;;;;;5066040;28;20040;-70
2022/05/11 02:28:50;;;;;;;10.38;6.70;;;11.20;99.90;;;;;;5070878;28;20119;-70
2022/05/11 02:31:18;;;;;;;12.00;6.93;;;11.30;99.90;;;;;;5063795;28;20047;-70
2022/05/11 02:33:44;;;;;;;;;;;11.30;99.90;;;;;;5063444;28;20497;-70
2022/05/11 02:36:12;;;;;;;11.45;6.68;;;11.30;99.90;;;;;;5071222;28;19928;-69
2022/05/11 02:38:41;;;;;;;9.63;6.25;;;11.30;99.90;;;;;;5071479;28;20044;-70
2022/05/11 02:41:08;;;;;;;9.75;6.30;;;11.30;99.90;;;;;;5059988;28;20052;-70
2022/05/11 02:43:35;;;;;;;9.15;6.63;;;11.10;99.90;;;;;;5068344;28;20056;-69
2022/05/11 02:46:02;;;;;;;15.80;7.20;;;11.00;99.90;;;;;;5071491;28;20040;-70
2022/05/11 02:48:31;;;;;;;10.90;7.65;;;10.90;99.90;;;;;;5062620;28;20045;-70
2022/05/11 02:50:59;;;;;;;12.38;7.60;;;10.90;99.90;;;;;;5050750;28;20041;-70
2022/05/11 02:53:27;;;;;;;12.23;7.82;;;11.00;99.90;;;;;;5051269;28;20044;-70
2022/05/11 02:55:55;;;;;;;12.02;7.20;;;11.10;99.90;;;;;;5059700;28;20037;-69
2022/05/11 02:58:25;;;;;;;11.38;6.90;;;11.10;99.90;;;;;;5066419;28;20094;-70
2022/05/11 03:00:53;;;;;;;8.70;6.35;;;11.00;99.90;;;;;;5070771;28;20040;-70
2022/05/11 03:03:20;;;;;;;12.10;6.35;;;10.90;99.90;;;;;;5070439;28;20044;-70
2022/05/11 03:05:48;;;;;;;11.45;6.47;;;10.80;99.90;;;;;;5061396;28;20033;-70
2022/05/11 03:08:15;;;;;;;9.60;6.97;;;10.80;99.90;;;;;;5071190;28;20044;-70
2022/05/11 03:10:42;;;;;;;13.57;7.05;;;10.80;99.90;;;;;;5070844;28;20370;-70
2022/05/11 03:13:08;;;;;;;13.13;7.68;;;10.80;99.90;;;;;;5068367;28;20442;-69
2022/05/11 03:15:36;;;;;;;13.43;7.40;;;10.80;99.90;;;;;;5062229;28;20064;-70
2022/05/11 03:18:03;;;;;;;12.55;6.43;;;10.90;99.90;;;;;;5071204;28;20040;-69
2022/05/11 03:20:30;;;;;;;10.35;6.85;;;10.90;99.90;;;;;;5070458;28;20071;-70
2022/05/11 03:22:57;;;;;;;11.43;7.00;;;10.80;99.90;;;;;;5060562;28;20712;-70
2022/05/11 03:25:25;;;;;;;11.27;6.25;;;10.70;99.90;;;;;;5066330;28;20063;-70
2022/05/11 03:27:53;;;;;;;8.82;6.05;;;10.50;99.90;;;;;;5071051;28;20037;-70
2022/05/11 03:30:20;;;;;;;9.15;6.25;;;10.30;99.90;;;;;;5070492;28;20045;-70
2022/05/11 03:35:32;;;;;;;9.13;5.68;;;10.30;99.90;;;;;;5067393;28;20384;-70
2022/05/11 03:37:59;;;;;;;8.88;6.32;;;10.30;99.90;;;;;;5071216;28;20098;-69
2022/05/11 03:40:26;;;;;;;11.48;7.00;;;10.40;99.90;;;;;;5069332;28;20041;-70
2022/05/11 03:42:53;;;;;;;10.85;6.90;;;10.40;99.90;;;;;;5065718;28;20040;-69
2022/05/11 03:45:23;;;;;;;9.38;6.55;;;10.40;99.90;;;;;;5074461;28;20048;-69
2022/05/11 03:47:51;;;;;;;10.15;6.50;;;10.50;99.90;;;;;;5074455;28;20086;-69
2022/05/11 03:50:22;;;;;;;13.02;7.47;;;10.50;99.90;;;;;;5072495;28;20048;-70
2022/05/11 03:52:50;;;;;;;10.18;7.13;;;10.60;99.90;;;;;;5065911;28;20044;-70
2022/05/11 03:55:17;;;;;;;10.13;6.35;;;10.60;99.90;;;;;;5074296;28;20040;-69
2022/05/11 03:57:44;;;;;;;14.85;6.13;;;10.60;99.90;;;;;;5074295;28;20496;-70
2022/05/11 04:00:15;;;;;;;12.75;6.90;;;10.50;99.90;;;;;;5063117;28;20041;-69
2022/05/11 04:02:42;;;;;;;9.48;6.55;;;10.40;99.90;;;;;;5072198;28;20052;-70
2022/05/11 04:05:10;;;;;;;;;;;10.40;99.90;;;;;;5074566;28;20060;-69
2022/05/11 04:07:37;;;;;;;11.63;7.05;;;10.30;99.90;;;;;;5072435;28;19951;-70
2022/05/11 04:10:05;;;;;;;13.07;5.50;;;10.30;99.90;;;;;;5066448;28;20044;-69
2022/05/11 04:12:34;;;;;;;11.85;6.13;;;10.30;99.90;;;;;;5073922;28;20036;-69
2022/05/11 04:15:01;;;;;;;13.10;6.38;;;10.30;99.90;;;;;;5085464;22;20555;-65
2022/05/11 04:17:27;;;;;;;9.52;6.15;;;10.40;99.90;;;;;;5068822;28;20102;-65
2022/05/11 04:19:55;;;;;;;10.45;5.53;;;10.60;99.90;;;;;;5052521;28;20045;-65
2022/05/11 04:22:22;;;;;;;9.25;6.28;;;10.60;99.90;;;;;;5073332;28;20044;-65
2022/05/11 04:24:49;;;;;;;7.47;5.40;;;10.60;99.90;;;;;;5054701;28;20041;-65
2022/05/11 04:27:15;;;;;;;9.93;5.80;;;10.70;99.90;;;;;;5066842;28;20102;-65
2022/05/11 04:29:42;;;;;;;10.18;5.95;;;10.80;99.90;;;;;;5068264;28;20040;-66
2022/05/11 04:32:10;;;;;;;11.38;6.75;;;10.90;99.90;;;;;;5069509;28;20037;-65
2022/05/11 04:34:41;;;;;;;9.18;5.95;;;10.90;99.90;;;;;;5072921;28;20044;-65
2022/05/11 04:37:09;;;;;;;9.38;6.00;;;10.90;99.90;;;;;;5072847;28;20040;-65
2022/05/11 04:39:36;;;;;;;9.05;6.07;;;11.00;99.90;;;;;;5061977;28;20364;-65
2022/05/11 04:42:03;;;;;;;10.32;5.65;;;11.10;99.90;;;;;;5072656;28;20399;-65
2022/05/11 04:44:30;;;;;;;10.60;6.10;;;11.20;99.90;;;;;;5068408;28;20060;-65
2022/05/11 04:47:04;;;;;;;12.10;5.95;;;11.30;99.90;;;;;;5067841;28;20028;-65
2022/05/11 04:49:31;;;;;;;8.35;6.45;;;11.40;99.90;;;;;;5061059;28;20060;-65
2022/05/11 04:52:00;;;;;;;16.92;7.82;;;11.50;99.90;;;;;;5052397;28;20048;-65
2022/05/11 04:54:27;;;;;;;14.13;8.18;;;11.60;99.90;;;;;;5052746;28;20053;-65
2022/05/11 04:56:54;;;;;;;12.32;7.38;;;11.80;99.90;;;;;;5060781;28;20408;-65
2022/05/11 04:59:22;;;;;;;11.93;7.38;;;12.00;99.90;;;;;;5067708;28;20044;-65
2022/05/11 05:01:48;;;;;;;13.45;7.25;;;12.10;99.90;;;;;;5072329;28;20048;-65
2022/05/11 05:04:15;;;;;;;13.63;6.88;;;12.30;99.90;;;;;;5069423;28;20049;-65
2022/05/11 05:06:42;;;;;;;10.80;7.90;;;12.40;99.90;;;;;;5070163;28;20098;-65
2022/05/11 05:09:09;;;;;;;9.60;7.18;;;12.50;99.90;;;;;;5072134;28;20172;-65
2022/05/11 05:11:36;;;;;;;10.13;7.72;;;12.60;99.90;;;;;;5071164;28;20051;-65
2022/05/11 05:14:06;;;;;;;21.08;11.02;;;12.70;99.90;;;;;;5069231;28;20048;-65
2022/05/11 05:16:34;;;;;;;11.90;7.15;;;12.80;99.90;;;;;;5070273;28;20041;-65
2022/05/11 05:19:01;;;;;;;;;;;12.80;99.90;;;;;;5070148;28;20392;-66
2022/05/11 05:21:28;;;;;;;14.63;7.05;;;12.80;99.90;;;;;;5071691;28;20011;-65
2022/05/11 05:23:55;;;;;;;;;;;13.00;99.90;;;;;;5069469;28;20063;-65
2022/05/11 05:26:22;;;;;;;14.52;7.47;;;13.00;99.90;;;;;;5063459;28;19974;-65
2022/05/11 05:31:34;;;;;;;9.57;6.82;;;13.20;99.90;;;;;;5071183;28;20052;-65
2022/05/11 05:34:01;;;;;;;12.32;7.18;;;13.50;99.90;;;;;;5067572;28;20033;-65
2022/05/11 05:36:31;;;;;;;11.35;7.38;;;13.30;99.90;;;;;;5063701;28;20044;-65
2022/05/11 05:39:00;;;;;;;11.25;6.70;;;13.30;99.90;;;;;;5054656;28;20515;-65
2022/05/11 05:41:27;;;;;;;12.05;7.22;;;13.20;99.90;;;;;;5064619;28;20041;-65
2022/05/11 05:43:54;;;;;;;;;;;13.20;99.90;;;;;;5063756;28;20051;-65
2022/05/11 05:46:22;;;;;;;12.85;7.18;;;13.20;99.90;;;;;;5071831;28;20457;-65
2022/05/11 05:48:49;;;;;;;9.93;7.30;;;13.20;99.90;;;;;;5069253;28;20041;-65
2022/05/11 05:51:18;;;;;;;13.43;7.47;;;13.10;99.90;;;;;;5059349;28;20442;-65
2022/05/11 05:53:45;;;;;;;11.05;8.07;;;13.10;99.90;;;;;;5061386;28;20053;-64
2022/05/11 05:56:13;;;;;;;13.23;7.63;;;13.00;99.90;;;;;;5071331;28;20051;-65
2022/05/11 05:58:41;;;;;;;14.52;7.07;;;13.00;99.90;;;;;;5071796;28;20044;-65
2022/05/11 06:01:08;;;;;;;14.75;7.75;;;13.00;99.90;;;;;;5061254;28;20103;-65
2022/05/11 06:03:36;;;;;;;16.10;7.55;;;13.10;99.90;;;;;;5068061;28;20051;-65
2022/05/11 06:06:07;;;;;;;12.52;7.03;;;13.20;99.90;;;;;;5052809;28;20051;-65
2022/05/11 06:08:34;;;;;;;10.90;7.15;;;13.30;99.90;;;;;;5066356;28;20496;-65
2022/05/11 06:11:01;;;;;;;18.00;7.30;;;13.30;99.90;;;;;;5067202;28;20037;-65
2022/05/11 06:13:28;;;;;;;14.35;7.00;;;13.40;99.90;;;;;;5034028;28;20036;-65
2022/05/11 06:15:56;;;;;;;15.40;6.25;;;13.50;99.90;;;;;;5058417;28;20048;-65
2022/05/11 06:18:24;;;;;;;11.98;7.15;;;13.60;99.90;;;;;;5066370;28;20049;-65
2022/05/11 06:20:52;;;;;;;12.18;6.93;;;13.70;99.90;;;;;;5062211;28;20515;-65
2022/05/11 06:23:20;;;;;;;9.98;6.57;;;13.80;99.90;;;;;;5071259;28;20056;-65
2022/05/11 06:25:50;;;;;;;9.95;6.75;;;13.90;99.90;;;;;;5068365;28;20036;-65
2022/05/11 06:28:21;;;;;;;10.27;7.05;;;14.00;99.90;;;;;;5070686;28;20489;-65
2022/05/11 06:31:08;;;;;;;13.18;6.75;;;14.10;99.90;;;;;;5070460;28;20094;-64
2022/05/11 06:33:45;;;;;;;15.50;6.93;;;14.30;99.90;;;;;;5071252;28;20484;-65
2022/05/11 06:36:13;;;;;;;11.25;6.55;;;14.40;99.90;;;;;;5063027;28;20678;-65
2022/05/11 06:38:39;;;;;;;10.82;6.72;;;14.50;99.90;;;;;;5065398;28;20492;-65
2022/05/11 06:41:15;;;;;;;13.43;7.72;;;14.70;99.90;;;;;;5070801;28;20040;-65
2022/05/11 06:43:44;;;;;;;11.43;6.53;;;14.90;99.90;;;;;;5068691;28;20052;-65
2022/05/11 06:46:12;;;;;;;16.17;7.00;;;15.10;99.90;;;;;;5065364;28;20048;-65
2022/05/11 06:48:39;;;;;;;11.75;6.43;;;15.10;99.90;;;;;;5051856;28;20505;-65
2022/05/11 06:51:06;;;;;;;8.77;6.22;;;15.20;99.90;;;;;;5070790;28;20048;-66
2022/05/11 06:59:20;;;;;;;12.23;6.65;;;15.40;99.90;;;;;;5062312;28;20044;-65
2022/05/11 06:59:20;;;;;;;9.15;6.47;;;15.80;99.90;;;;;;5071298;28;20053;-64
2022/05/11 07:01:57;;;;;;;11.40;6.57;;;15.90;99.90;;;;;;5066234;28;20041;-65
2022/05/11 07:04:26;;;;;;;9.05;6.25;;;16.10;99.90;;;;;;5062324;28;20472;-65
2022/05/11 07:06:57;;;;;;;10.70;6.50;;;16.20;99.90;;;;;;5070609;28;20044;-65
2022/05/11 07:09:25;;;;;;;13.48;6.25;;;16.30;99.90;;;;;;5066112;28;20033;-65
2022/05/11 07:14:39;;;;;;;8.93;5.78;;;16.40;99.90;;;;;;5073797;28;20048;-64
2022/05/11 07:17:06;;;;;;;12.15;6.38;;;16.50;99.90;;;;;;5069520;28;20044;-65
2022/05/11 07:19:33;;;;;;;;;;;16.60;99.90;;;;;;5063559;28;20721;-65
2022/05/11 07:22:01;;;;;;;8.63;5.75;;;17.00;99.90;;;;;;5074394;28;19921;-65
2022/05/11 07:24:28;;;;;;;10.50;5.72;;;17.30;99.90;;;;;;5074610;28;20036;-65
2022/05/11 07:26:55;;;;;;;14.35;6.00;;;17.60;99.90;;;;;;5064534;28;20425;-65
2022/05/11 07:29:22;;;;;;;17.02;5.95;;;17.80;99.90;;;;;;5069787;28;20040;-66
2022/05/11 07:31:49;;;;;;;9.40;5.00;;;18.00;99.90;;;;;;5073691;28;20052;-65
2022/05/11 07:34:16;;;;;;;8.10;5.20;;;18.10;99.90;;;;;;5066253;28;20052;-65
2022/05/11 07:36:42;;;;;;;7.70;5.22;;;18.20;99.90;;;;;;5064338;28;20099;-65
2022/05/11 07:39:10;;;;;;;7.82;5.75;;;18.30;99.90;;;;;;5054500;28;20044;-65
2022/05/11 07:41:37;;;;;;;8.50;5.93;;;18.50;99.90;;;;;;5054404;28;20463;-65
2022/05/11 07:44:04;;;;;;;10.35;5.35;;;18.70;99.90;;;;;;5065966;28;20040;-65
2022/05/11 07:46:34;;;;;;;7.00;4.90;;;18.80;99.90;;;;;;5074565;28;20097;-65
2022/05/11 07:49:03;;;;;;;9.23;5.10;;;18.90;99.90;;;;;;5074827;28;20044;-65
2022/05/11 07:51:31;;;;;;;6.50;4.95;;;18.90;99.90;;;;;;5068727;28;20050;-65
2022/05/11 07:53:58;;;;;;;15.27;4.78;;;19.10;99.90;;;;;;5066311;28;20044;-65
2022/05/11 08:01:56;;;;;;;8.85;4.82;;;19.50;99.90;;;;;;5070961;28;20053;-66
2022/05/11 08:04:23;;;;;;;8.43;4.50;;;19.60;99.90;;;;;;5073870;28;20037;-66
2022/05/11 08:06:50;;;;;;;5.93;4.65;;;19.70;99.90;;;;;;5073953;28;20381;-66
2022/05/11 08:09:16;;;;;;;7.93;4.40;;;19.80;99.90;;;;;;5070034;28;20044;-65
2022/05/11 08:11:43;;;;;;;6.28;4.53;;;20.00;99.90;;;;;;5065384;28;20445;-66
2022/05/11 08:14:10;;;;;;;7.22;4.68;;;20.20;99.90;;;;;;5073967;28;20540;-66
2022/05/11 08:16:36;;;;;;;14.65;4.82;;;20.30;99.90;;;;;;5070645;28;20041;-65
2022/05/11 08:19:03;;;;;;;6.07;4.15;;;20.50;99.90;;;;;;5065576;28;20492;-65
2022/05/11 08:21:30;;;;;;;6.20;4.07;;;20.60;99.90;;;;;;5073434;28;20048;-65
2022/05/11 08:23:57;;;;;;;6.50;4.32;;;20.60;99.90;;;;;;5073652;28;20056;-66
2022/05/11 08:26:23;;;;;;;5.95;3.70;;;20.60;99.90;;;;;;5064016;28;20052;-65
2022/05/11 08:28:50;;;;;;;6.35;4.05;;;20.90;99.90;;;;;;5065436;28;20045;-65
2022/05/11 08:34:03;;;;;;;5.63;3.65;;;21.20;99.90;;;;;;5073409;28;20055;-65
2022/05/11 08:36:38;;;;;;;5.65;4.00;;;21.30;99.90;;;;;;5071507;28;20037;-66
2022/05/11 08:39:05;;;;;;;5.38;3.85;;;21.20;99.90;;;;;;5065341;28;20037;-66
2022/05/11 08:41:51;;;;;;;5.20;3.92;;;21.30;99.90;;;;;;5072986;28;20047;-65
2022/05/11 08:44:33;;;;;;;4.43;4.03;;;21.30;99.90;;;;;;5068329;28;20048;-65
2022/05/11 08:47:10;;;;;;;4.70;3.70;;;21.40;99.90;;;;;;5065138;28;20528;-65
2022/05/11 08:49:55;;;;;;;4.35;3.90;;;21.40;99.90;;;;;;5073430;28;20037;-65
2022/05/11 08:52:47;;;;;;;4.10;3.50;;;21.60;99.90;;;;;;5073436;28;20068;-65
2022/05/11 08:55:42;;;;;;;7.93;3.83;;;21.70;99.80;;;;;;5066690;28;20033;-65
2022/05/11 08:58:11;;;;;;;5.35;3.78;;;21.90;99.10;;;;;;5061694;28;20044;-66
2022/05/11 09:00:43;;;;;;;7.20;3.70;;;22.10;98.70;;;;;;5072646;28;20040;-66
2022/05/11 09:03:31;;;;;;;7.57;3.85;;;22.30;98.60;;;;;;5068203;28;20072;-65
2022/05/11 09:06:01;;;;;;;4.60;3.30;;;22.40;97.90;;;;;;5064319;28;20041;-65
2022/05/11 09:08:33;;;;;;;6.78;4.10;;;22.40;97.90;;;;;;5072874;28;20459;-66
2022/05/11 09:11:00;;;;;;;5.05;4.07;;;22.50;98.10;;;;;;5069937;28;20040;-65
2022/05/11 09:13:27;;;;;;;5.38;3.53;;;22.80;98.80;;;;;;5064422;28;20055;-65
2022/05/11 09:16:05;;;;;;;4.80;3.60;;;22.90;98.20;;;;;;5072551;28;20560;-65
2022/05/11 09:18:39;;;;;;;4.88;3.63;;;23.00;96.30;;;;;;5070419;28;20048;-66
2022/05/11 09:21:20;;;;;;;5.05;3.55;;;23.10;96.60;;;;;;5063824;28;20090;-65
2022/05/11 09:24:10;;;;;;;5.68;3.53;;;23.20;96.60;;;;;;5072530;28;20101;-66
2022/05/11 09:26:40;;;;;;;5.65;3.65;;;23.30;96.00;;;;;;5072544;28;20089;-65
2022/05/11 09:29:31;;;;;;;7.10;3.42;;;23.30;96.70;;;;;;5064450;28;20041;-65
2022/05/11 09:32:37;;;;;;;4.93;3.55;;;23.40;95.30;;;;;;5052094;28;20492;-65
2022/05/11 09:35:21;;;;;;;6.72;4.00;;;23.50;96.70;;;;;;5052350;28;20044;-65
2022/05/11 09:38:07;;;;;;;6.25;3.90;;;23.70;96.30;;;;;;5060072;28;20056;-65
2022/05/11 09:40:57;;;;;;;8.57;4.35;;;23.80;95.40;;;;;;5068944;28;20045;-66
2022/05/11 09:43:43;;;;;;;8.32;4.40;;;23.80;96.30;;;;;;5072012;28;20489;-66
2022/05/11 09:46:31;;;;;;;6.30;3.75;;;23.90;96.70;;;;;;5066034;28;20040;-66
2022/05/11 09:49:00;;;;;;;5.97;3.80;;;23.90;96.70;;;;;;5064156;28;20459;-65
2022/05/11 09:51:33;;;;;;;5.80;4.03;;;24.00;96.80;;;;;;5072108;28;20121;-65
2022/05/11 09:54:15;;;;;;;7.38;3.97;;;24.00;97.80;;;;;;5071843;28;20036;-65
2022/05/11 09:56:50;;;;;;;4.32;3.42;;;24.10;96.40;;;;;;5062316;28;20412;-65
2022/05/11 09:59:32;;;;;;;9.40;3.88;;;24.20;95.80;;;;;;5071805;28;20393;-66
2022/05/11 10:02:04;;;;;;;6.97;4.00;;;24.20;96.10;;;;;;5071446;28;20117;-65
2022/05/11 10:04:39;;;;;;;10.68;3.80;;;24.20;95.60;;;;;;5063022;28;20049;-65
2022/05/11 10:07:10;;;;;;;8.20;3.92;;;24.10;95.00;;;;;;5059672;28;20037;-65
2022/05/11 10:09:44;;;;;;;7.38;3.72;;;24.10;95.10;;;;;;5051874;28;20048;-65
2022/05/11 10:12:17;;;;;;;5.05;4.10;;;24.10;95.60;;;;;;5051134;28;20049;-65
2022/05/11 10:21:57;;;;;;;6.35;4.15;;;24.40;96.40;;;;;;5069469;28;20029;-68
2022/05/11 10:24:41;;;;;;;7.00;3.90;;;24.60;94.70;;;;;;5064050;28;20115;-67
2022/05/11 10:27:29;;;;;;;6.10;3.70;;;24.70;94.90;;;;;;5054707;28;20036;-69
2022/05/11 10:30:16;;;;;;;7.88;4.05;;;24.90;94.10;;;;;;5069735;28;20047;-70
2022/05/11 10:33:05;;;;;;;4.40;3.50;;;25.00;94.00;;;;;;5059539;28;20050;-70
2022/05/11 10:35:57;;;;;;;4.93;3.55;;;25.20;94.20;;;;;;5051123;28;20305;-69
2022/05/11 10:38:40;;;;;;;8.20;3.92;;;25.30;93.30;;;;;;5051180;28;20508;-70
2022/05/11 10:41:28;;;;;;;8.85;4.03;;;25.60;94.50;;;;;;5059215;28;20055;-70
2022/05/11 10:44:02;;;;;;;5.65;3.45;;;25.80;94.40;;;;;;5051292;28;20079;-70
2022/05/11 10:46:36;;;;;;;10.43;3.70;;;25.90;93.20;;;;;;5051236;28;20041;-70
2022/05/11 10:49:32;;;;;;;5.68;3.47;;;25.80;93.60;;;;;;5058705;28;20037;-70
2022/05/11 10:52:35;;;;;;;5.55;3.25;;;25.70;93.50;;;;;;5050806;28;20049;-70
2022/05/11 10:55:30;;;;;;;4.82;3.22;;;26.00;90.20;;;;;;5051047;28;20033;-69
2022/05/11 10:58:27;;;;;;;6.63;3.00;;;26.20;90.00;;;;;;5059042;28;20041;-69
2022/05/11 11:01:04;;;;;;;5.40;3.20;;;26.40;86.30;;;;;;5070418;28;20044;-69
2022/05/11 11:03:55;;;;;;;3.95;3.22;;;26.00;92.10;;;;;;5071236;28;20407;-69
2022/05/11 11:09:42;;;;;;;4.45;2.65;;;26.20;89.90;;;;;;5064766;28;20113;-69
2022/05/11 11:12:27;;;;;;;3.58;2.10;;;26.40;74.00;;;;;;5026585;28;20057;-69
2022/05/11 11:14:57;;;;;;;2.83;2.00;;;26.50;71.90;;;;;;5068640;28;20048;-69
2022/05/11 11:17:26;;;;;;;4.63;2.10;;;26.70;71.60;;;;;;5059250;28;20049;-69
2022/05/11 11:19:58;;;;;;;3.50;1.67;;;27.00;69.10;;;;;;5070088;28;20090;-69
2022/05/11 11:22:24;;;;;;;3.80;1.95;;;27.10;66.20;;;;;;5071007;28;20045;-69
2022/05/11 11:25:10;;;;;;;2.70;2.28;;;27.30;69.60;;;;;;5069836;28;20064;-70
2022/05/11 11:28:10;;;;;;;4.75;1.90;;;27.60;66.10;;;;;;5062394;28;20436;-70
2022/05/11 11:30:39;;;;;;;2.63;1.80;;;27.70;63.30;;;;;;5070662;28;20431;-68
2022/05/11 11:33:20;;;;;;;2.60;1.80;;;27.60;64.10;;;;;;5070926;28;20044;-69
2022/05/11 11:35:59;;;;;;;4.15;1.70;;;27.80;61.00;;;;;;5060539;28;20041;-69
2022/05/11 11:38:38;;;;;;;3.30;2.05;;;27.80;58.50;;;;;;5066479;28;20044;-68
2022/05/11 11:41:22;;;;;;;3.03;1.90;;;27.80;58.20;;;;;;5070444;28;20036;-68
2022/05/11 11:43:54;;;;;;;2.95;1.63;;;27.60;57.70;;;;;;5069498;28;20037;-69
2022/05/11 11:46:32;;;;;;;3.28;1.90;;;27.70;58.00;;;;;;5062284;28;20049;-69
2022/05/11 11:49:32;;;;;;;3.45;2.00;;;27.90;58.10;;;;;;5070513;28;20063;-68
2022/05/11 11:52:07;;;;;;;2.58;1.90;;;27.80;55.90;;;;;;5070316;28;20040;-68
2022/05/11 11:54:37;;;;;;;2.22;1.67;;;27.60;55.60;;;;;;5062519;28;20052;-68
2022/05/11 11:57:06;;;;;;;2.85;2.03;;;27.70;55.60;;;;;;5063404;28;20057;-68
2022/05/11 11:59:42;;;;;;;2.85;1.90;;;27.90;58.00;;;;;;5070482;28;20044;-69
2022/05/11 12:02:28;;;;;;;3.22;2.10;;;28.30;54.90;;;;;;5070155;28;20052;-68
2022/05/11 12:04:57;;;;;;;4.93;2.00;;;28.30;55.90;;;;;;5065316;28;20032;-68
2022/05/11 12:16:07;;;;;;;4.30;1.92;;;28.80;52.20;;;;;;5053924;28;20037;-69
2022/05/11 12:18:39;;;;;;;6.25;1.73;;;28.80;51.10;;;;;;5053866;28;20482;-69
2022/05/11 12:21:23;;;;;;;4.75;1.75;;;28.70;52.80;;;;;;5058022;28;20094;-68
2022/05/11 12:23:51;;;;;;;1.83;1.60;;;28.60;53.10;;;;;;5065248;28;20109;-68
2022/05/11 12:26:31;;;;;;;2.80;1.50;;;28.60;50.50;;;;;;5073557;28;20049;-68
2022/05/11 12:32:07;;;;;;;3.67;1.95;;;28.30;52.00;;;;;;5065222;28;20090;-69
2022/05/11 12:34:46;;;;;;;3.03;1.90;;;28.50;51.30;;;;;;5073530;28;20063;-68
2022/05/11 12:37:34;;;;;;;4.07;1.88;;;28.40;50.20;;;;;;5065606;28;20551;-69
2022/05/11 12:40:09;;;;;;;2.67;1.38;;;28.40;53.30;;;;;;5065500;28;20044;-68
2022/05/11 12:42:41;;;;;;;4.57;2.13;;;28.90;51.80;;;;;;5073497;28;20115;-68
2022/05/11 12:45:11;;;;;;;3.65;1.77;;;28.80;50.00;;;;;;5065621;28;20119;-69
2022/05/11 12:47:45;;;;;;;2.22;1.77;;;28.90;49.20;;;;;;5064774;28;20037;-69
2022/05/11 12:50:19;;;;;;;3.50;1.88;;;29.00;50.20;;;;;;5072936;28;20033;-69
2022/05/11 12:52:59;;;;;;;4.97;2.10;;;29.20;49.80;;;;;;5065860;28;20111;-69
2022/05/11 12:55:27;;;;;;;4.05;1.80;;;29.40;48.90;;;;;;5064791;28;20036;-68
2022/05/11 12:57:56;;;;;;;3.40;1.75;;;29.40;49.00;;;;;;5073061;28;20048;-68
2022/05/11 13:00:26;;;;;;;4.28;1.70;;;29.20;47.60;;;;;;5072640;28;20048;-69
2022/05/11 13:02:52;;;;;;;5.95;1.92;;;29.10;47.80;;;;;;5068526;28;20036;-69
2022/05/11 13:05:20;;;;;;;2.25;1.95;;;29.00;50.00;;;;;;5067715;28;20053;-69
2022/05/11 13:08:03;;;;;;;2.47;1.77;;;29.10;48.80;;;;;;5072912;28;20051;-69
2022/05/11 13:10:35;;;;;;;2.88;1.63;;;29.30;48.40;;;;;;5072533;28;20400;-69
2022/05/11 13:13:11;;;;;;;4.72;1.60;;;29.40;50.50;;;;;;5064191;28;20032;-69
2022/05/11 13:15:41;;;;;;;6.30;2.80;;;29.60;47.70;;;;;;5070037;28;20052;-69
2022/05/11 13:18:22;;;;;;;4.03;2.22;;;29.90;48.30;;;;;;5072799;28;20052;-69
2022/05/11 13:20:50;;;;;;;3.65;2.72;;;29.70;48.50;;;;;;5067371;28;20441;-69
2022/05/11 13:23:29;;;;;;;5.90;2.83;;;29.50;47.20;;;;;;5064016;28;20068;-69
2022/05/11 13:25:58;;;;;;;7.13;2.75;;;29.60;47.20;;;;;;5072458;28;20048;-69
2022/05/11 13:28:34;;;;;;;2.40;2.00;;;29.40;47.80;;;;;;5072339;28;20086;-69
2022/05/11 13:31:32;;;;;;;3.80;2.03;;;29.30;47.30;;;;;;5066294;28;20048;-69
2022/05/11 13:34:01;;;;;;;9.23;2.42;;;29.30;50.40;;;;;;5064263;28;20078;-69
2022/05/11 13:36:37;;;;;;;3.88;1.90;;;29.50;48.90;;;;;;5072119;28;20049;-69
2022/05/11 13:39:11;;;;;;;3.92;2.05;;;29.60;47.30;;;;;;5071243;28;20052;-69
2022/05/11 13:41:55;;;;;;;4.20;2.20;;;29.50;50.00;;;;;;5060523;28;20501;-69
2022/05/11 13:44:41;;;;;;;3.80;1.80;;;29.10;50.80;;;;;;5061586;28;20505;-69
2022/05/11 13:50:27;;;;;;;3.28;1.98;;;29.00;51.50;;;;;;5050227;28;20091;-69
2022/05/11 13:53:04;;;;;;;7.05;2.25;;;28.80;54.10;;;;;;5059651;28;20392;-68
2022/05/11 13:55:33;;;;;;;;;;;28.80;53.90;;;;;;5068729;28;20051;-69
2022/05/11 13:58:24;;;;;;;6.10;2.42;;;28.60;54.00;;;;;;5071788;28;19934;-70